sensor_id;sensor_type;location;lat;lon;timestamp;pressure;altitude;pressure_sealevel;temperature;humidity
83273;BME280;73177;51.584;5.188;2024-03-25T00:01:38;100804.25;;;11.37;60.51
83273;BME280;73177;51.584;5.188;2024-03-25T00:04:03;100804.94;;;11.19;61.22
83273;BME280;73177;51.584;5.188;2024-03-25T00:06:29;100802.66;;;10.62;61.30
83273;BME280;73177;51.584;5.188;2024-03-25T00:08:59;100800.66;;;11.17;60.93
83273;BME280;73177;51.584;5.188;2024-03-25T00:11:24;100802.06;;;11.02;61.25
83273;BME280;73177;51.584;5.188;2024-03-25T00:13:49;100793.41;;;11.46;60.38
83273;BME280;73177;51.584;5.188;2024-03-25T00:16:14;100788.63;;;12.01;58.29
83273;BME280;73177;51.584;5.188;2024-03-25T00:18:40;100786.59;;;11.18;59.53
83273;BME280;73177;51.584;5.188;2024-03-25T00:21:05;100791.97;;;12.04;58.14
83273;BME280;73177;51.584;5.188;2024-03-25T00:23:30;100783.97;;;11.41;58.54
83273;BME280;73177;51.584;5.188;2024-03-25T00:25:56;100779.94;;;11.54;59.78
83273;BME280;73177;51.584;5.188;2024-03-25T00:28:21;100769.88;;;11.20;59.20
83273;BME280;73177;51.584;5.188;2024-03-25T00:30:47;100799.84;;;10.92;60.66
83273;BME280;73177;51.584;5.188;2024-03-25T00:33:12;100796.28;;;10.93;60.78
83273;BME280;73177;51.584;5.188;2024-03-25T00:35:38;100792.19;;;10.61;62.49
83273;BME280;73177;51.584;5.188;2024-03-25T00:38:03;100792.13;;;10.87;61.27
83273;BME280;73177;51.584;5.188;2024-03-25T00:40:29;100792.75;;;10.94;61.34
83273;BME280;73177;51.584;5.188;2024-03-25T00:42:55;100796.03;;;10.75;61.20
83273;BME280;73177;51.584;5.188;2024-03-25T00:45:20;100799.72;;;10.70;61.63
83273;BME280;73177;51.584;5.188;2024-03-25T00:47:46;100793.81;;;10.88;62.00
83273;BME280;73177;51.584;5.188;2024-03-25T00:50:11;100781.41;;;10.19;62.77
83273;BME280;73177;51.584;5.188;2024-03-25T00:52:36;100804.44;;;10.36;63.33
83273;BME280;73177;51.584;5.188;2024-03-25T00:55:02;100793.34;;;10.28;63.03
83273;BME280;73177;51.584;5.188;2024-03-25T00:57:28;100799.09;;;10.39;62.70
83273;BME280;73177;51.584;5.188;2024-03-25T00:59:54;100813.81;;;10.17;64.12
83273;BME280;73177;51.584;5.188;2024-03-25T01:02:20;100803.75;;;10.03;63.70
83273;BME280;73177;51.584;5.188;2024-03-25T01:04:46;100797.50;;;11.30;59.75
83273;BME280;73177;51.584;5.188;2024-03-25T01:07:11;100789.91;;;10.26;63.84
83273;BME280;73177;51.584;5.188;2024-03-25T01:09:37;100776.72;;;10.78;60.42
83273;BME280;73177;51.584;5.188;2024-03-25T01:12:03;100806.94;;;10.65;61.93
83273;BME280;73177;51.584;5.188;2024-03-25T01:14:28;100805.16;;;10.90;61.48
83273;BME280;73177;51.584;5.188;2024-03-25T01:16:53;100806.66;;;10.22;63.73
83273;BME280;73177;51.584;5.188;2024-03-25T01:19:19;100817.75;;;10.81;62.60
83273;BME280;73177;51.584;5.188;2024-03-25T01:21:46;100819.22;;;10.12;63.48
83273;BME280;73177;51.584;5.188;2024-03-25T01:24:11;100814.97;;;10.84;61.95
83273;BME280;73177;51.584;5.188;2024-03-25T01:26:36;100818.81;;;9.96;62.85
83273;BME280;73177;51.584;5.188;2024-03-25T01:29:02;100800.34;;;10.78;61.34
83273;BME280;73177;51.584;5.188;2024-03-25T01:31:27;100824.91;;;10.51;61.80
83273;BME280;73177;51.584;5.188;2024-03-25T01:33:53;100783.63;;;10.81;61.45
83273;BME280;73177;51.584;5.188;2024-03-25T01:36:18;100796.53;;;10.37;62.30
83273;BME280;73177;51.584;5.188;2024-03-25T01:38:46;100801.88;;;10.84;61.98
83273;BME280;73177;51.584;5.188;2024-03-25T01:41:13;100799.19;;;11.55;58.57
83273;BME280;73177;51.584;5.188;2024-03-25T01:43:40;100790.03;;;10.97;58.97
83273;BME280;73177;51.584;5.188;2024-03-25T01:46:07;100795.75;;;9.80;63.92
83273;BME280;73177;51.584;5.188;2024-03-25T01:48:32;100785.00;;;9.89;64.40
83273;BME280;73177;51.584;5.188;2024-03-25T01:50:58;100806.59;;;10.23;63.07
83273;BME280;73177;51.584;5.188;2024-03-25T01:53:25;100790.25;;;10.41;62.17
83273;BME280;73177;51.584;5.188;2024-03-25T01:55:54;100801.34;;;10.49;61.98
83273;BME280;73177;51.584;5.188;2024-03-25T01:58:21;100803.22;;;10.46;61.84
83273;BME280;73177;51.584;5.188;2024-03-25T02:00:49;100789.88;;;10.52;61.05
83273;BME280;73177;51.584;5.188;2024-03-25T02:03:15;100804.81;;;11.22;59.82
83273;BME280;73177;51.584;5.188;2024-03-25T02:05:40;100784.22;;;10.64;61.13
83273;BME280;73177;51.584;5.188;2024-03-25T02:08:06;100802.53;;;10.15;62.83
83273;BME280;73177;51.584;5.188;2024-03-25T02:10:32;100796.19;;;10.96;61.76
83273;BME280;73177;51.584;5.188;2024-03-25T02:12:58;100775.78;;;10.30;61.71
83273;BME280;73177;51.584;5.188;2024-03-25T02:15:23;100795.88;;;10.31;62.32
83273;BME280;73177;51.584;5.188;2024-03-25T02:17:51;100803.19;;;9.93;63.73
83273;BME280;73177;51.584;5.188;2024-03-25T02:20:16;100788.91;;;11.04;59.38
83273;BME280;73177;51.584;5.188;2024-03-25T02:22:42;100796.34;;;9.89;62.74
83273;BME280;73177;51.584;5.188;2024-03-25T02:25:09;100785.94;;;10.65;60.62
83273;BME280;73177;51.584;5.188;2024-03-25T02:27:36;100764.81;;;10.19;62.72
83273;BME280;73177;51.584;5.188;2024-03-25T02:30:06;100788.25;;;10.97;59.61
83273;BME280;73177;51.584;5.188;2024-03-25T02:32:33;100776.06;;;10.71;60.08
83273;BME280;73177;51.584;5.188;2024-03-25T02:34:59;100766.16;;;10.55;61.66
83273;BME280;73177;51.584;5.188;2024-03-25T02:37:25;100778.84;;;11.15;58.77
83273;BME280;73177;51.584;5.188;2024-03-25T02:39:51;100774.06;;;11.26;57.96
83273;BME280;73177;51.584;5.188;2024-03-25T02:42:18;100759.25;;;10.77;59.67
83273;BME280;73177;51.584;5.188;2024-03-25T02:44:43;100768.56;;;10.86;60.38
83273;BME280;73177;51.584;5.188;2024-03-25T02:47:09;100769.13;;;9.93;62.13
83273;BME280;73177;51.584;5.188;2024-03-25T02:49:36;100764.00;;;11.14;59.23
83273;BME280;73177;51.584;5.188;2024-03-25T02:52:02;100749.34;;;10.85;59.69
83273;BME280;73177;51.584;5.188;2024-03-25T02:54:27;100771.16;;;10.38;61.30
83273;BME280;73177;51.584;5.188;2024-03-25T02:56:52;100769.47;;;9.83;63.55
83273;BME280;73177;51.584;5.188;2024-03-25T02:59:18;100763.88;;;9.67;64.14
83273;BME280;73177;51.584;5.188;2024-03-25T03:01:43;100761.47;;;10.14;62.83
83273;BME280;73177;51.584;5.188;2024-03-25T03:04:08;100754.06;;;10.75;59.96
83273;BME280;73177;51.584;5.188;2024-03-25T03:06:34;100745.06;;;10.07;61.77
83273;BME280;73177;51.584;5.188;2024-03-25T03:08:59;100741.72;;;10.03;62.96
83273;BME280;73177;51.584;5.188;2024-03-25T03:11:24;100739.31;;;11.41;57.39
83273;BME280;73177;51.584;5.188;2024-03-25T03:13:50;100752.63;;;10.67;58.18
83273;BME280;73177;51.584;5.188;2024-03-25T03:16:15;100748.81;;;10.00;61.50
83273;BME280;73177;51.584;5.188;2024-03-25T03:18:40;100751.47;;;10.26;60.59
83273;BME280;73177;51.584;5.188;2024-03-25T03:21:06;100754.72;;;10.57;60.25
83273;BME280;73177;51.584;5.188;2024-03-25T03:23:31;100742.13;;;11.58;56.52
83273;BME280;73177;51.584;5.188;2024-03-25T03:25:57;100748.16;;;11.83;55.37
83273;BME280;73177;51.584;5.188;2024-03-25T03:28:25;100724.25;;;11.23;56.88
83273;BME280;73177;51.584;5.188;2024-03-25T03:30:50;100751.28;;;11.03;57.84
83273;BME280;73177;51.584;5.188;2024-03-25T03:33:15;100755.75;;;10.29;60.41
83273;BME280;73177;51.584;5.188;2024-03-25T03:35:40;100744.75;;;10.18;60.69
83273;BME280;73177;51.584;5.188;2024-03-25T03:38:07;100745.28;;;10.27;60.34
83273;BME280;73177;51.584;5.188;2024-03-25T03:40:32;100735.97;;;9.92;61.93
83273;BME280;73177;51.584;5.188;2024-03-25T03:42:57;100739.41;;;10.21;61.04
83273;BME280;73177;51.584;5.188;2024-03-25T03:45:24;100751.31;;;10.31;59.97
83273;BME280;73177;51.584;5.188;2024-03-25T03:47:50;100761.06;;;9.46;63.89
83273;BME280;73177;51.584;5.188;2024-03-25T03:50:15;100763.44;;;9.53;63.85
83273;BME280;73177;51.584;5.188;2024-03-25T03:52:41;100750.03;;;10.90;58.91
83273;BME280;73177;51.584;5.188;2024-03-25T03:55:06;100744.31;;;11.02;58.17
83273;BME280;73177;51.584;5.188;2024-03-25T03:57:32;100747.44;;;10.89;58.46
83273;BME280;73177;51.584;5.188;2024-03-25T03:59:58;100746.19;;;10.75;59.79
83273;BME280;73177;51.584;5.188;2024-03-25T04:02:23;100717.25;;;11.45;56.22
83273;BME280;73177;51.584;5.188;2024-03-25T04:04:48;100742.31;;;11.54;55.86
83273;BME280;73177;51.584;5.188;2024-03-25T04:07:14;100745.72;;;11.11;57.25
83273;BME280;73177;51.584;5.188;2024-03-25T04:09:40;100743.31;;;10.82;58.23
83273;BME280;73177;51.584;5.188;2024-03-25T04:12:05;100727.22;;;10.92;57.71
83273;BME280;73177;51.584;5.188;2024-03-25T04:14:31;100729.06;;;10.41;59.95
83273;BME280;73177;51.584;5.188;2024-03-25T04:16:56;100745.94;;;10.07;60.82
83273;BME280;73177;51.584;5.188;2024-03-25T04:19:25;100725.22;;;11.20;57.45
83273;BME280;73177;51.584;5.188;2024-03-25T04:21:53;100736.59;;;10.98;57.44
83273;BME280;73177;51.584;5.188;2024-03-25T04:24:18;100734.75;;;11.01;58.23
83273;BME280;73177;51.584;5.188;2024-03-25T04:26:44;100744.06;;;10.37;60.01
83273;BME280;73177;51.584;5.188;2024-03-25T04:29:10;100739.63;;;9.87;61.36
83273;BME280;73177;51.584;5.188;2024-03-25T04:31:35;100726.25;;;10.47;60.38
83273;BME280;73177;51.584;5.188;2024-03-25T04:34:02;100724.88;;;10.11;61.25
83273;BME280;73177;51.584;5.188;2024-03-25T04:36:28;100733.75;;;9.80;62.10
83273;BME280;73177;51.584;5.188;2024-03-25T04:38:53;100714.69;;;9.75;63.12
83273;BME280;73177;51.584;5.188;2024-03-25T04:41:19;100726.78;;;10.05;61.44
83273;BME280;73177;51.584;5.188;2024-03-25T04:43:44;100729.31;;;10.35;60.80
83273;BME280;73177;51.584;5.188;2024-03-25T04:46:10;100731.00;;;11.07;57.96
83273;BME280;73177;51.584;5.188;2024-03-25T04:48:36;100740.41;;;11.35;56.84
83273;BME280;73177;51.584;5.188;2024-03-25T04:51:01;100731.19;;;11.47;55.93
83273;BME280;73177;51.584;5.188;2024-03-25T04:53:26;100732.38;;;11.17;56.90
83273;BME280;73177;51.584;5.188;2024-03-25T04:55:52;100723.88;;;10.87;58.73
83273;BME280;73177;51.584;5.188;2024-03-25T04:58:17;100745.44;;;10.23;61.03
83273;BME280;73177;51.584;5.188;2024-03-25T05:00:42;100733.41;;;10.66;60.02
83273;BME280;73177;51.584;5.188;2024-03-25T05:03:08;100740.03;;;10.52;59.95
83273;BME280;73177;51.584;5.188;2024-03-25T05:05:33;100725.44;;;10.69;58.39
83273;BME280;73177;51.584;5.188;2024-03-25T05:07:58;100749.53;;;10.79;58.22
83273;BME280;73177;51.584;5.188;2024-03-25T05:10:24;100759.28;;;10.00;60.98
83273;BME280;73177;51.584;5.188;2024-03-25T05:12:49;100755.47;;;10.84;58.08
83273;BME280;73177;51.584;5.188;2024-03-25T05:15:15;100755.16;;;10.93;57.85
83273;BME280;73177;51.584;5.188;2024-03-25T05:17:40;100744.63;;;10.70;58.71
83273;BME280;73177;51.584;5.188;2024-03-25T05:20:06;100746.75;;;11.07;57.42
83273;BME280;73177;51.584;5.188;2024-03-25T05:22:31;100767.63;;;10.39;59.18
83273;BME280;73177;51.584;5.188;2024-03-25T05:24:57;100752.06;;;10.82;57.57
83273;BME280;73177;51.584;5.188;2024-03-25T05:27:22;100732.19;;;10.75;56.96
83273;BME280;73177;51.584;5.188;2024-03-25T05:29:49;100756.22;;;11.11;57.45
83273;BME280;73177;51.584;5.188;2024-03-25T05:32:14;100727.81;;;11.22;55.41
83273;BME280;73177;51.584;5.188;2024-03-25T05:34:41;100741.81;;;11.44;55.42
83273;BME280;73177;51.584;5.188;2024-03-25T05:37:07;100739.69;;;11.54;54.75
83273;BME280;73177;51.584;5.188;2024-03-25T05:39:32;100750.31;;;11.51;55.21
83273;BME280;73177;51.584;5.188;2024-03-25T05:41:57;100740.69;;;11.73;54.56
83273;BME280;73177;51.584;5.188;2024-03-25T05:44:23;100749.66;;;11.89;54.05
83273;BME280;73177;51.584;5.188;2024-03-25T05:46:48;100744.78;;;11.58;54.46
83273;BME280;73177;51.584;5.188;2024-03-25T05:49:14;100733.03;;;11.88;54.08
83273;BME280;73177;51.584;5.188;2024-03-25T05:51:39;100746.91;;;11.70;53.93
83273;BME280;73177;51.584;5.188;2024-03-25T05:54:04;100736.63;;;11.64;54.58
83273;BME280;73177;51.584;5.188;2024-03-25T05:56:30;100735.91;;;11.82;54.22
83273;BME280;73177;51.584;5.188;2024-03-25T05:58:56;100736.75;;;11.61;54.80
83273;BME280;73177;51.584;5.188;2024-03-25T06:01:22;100734.19;;;11.60;54.57
83273;BME280;73177;51.584;5.188;2024-03-25T06:03:47;100726.97;;;11.43;56.07
83273;BME280;73177;51.584;5.188;2024-03-25T06:06:12;100727.44;;;11.76;54.75
83273;BME280;73177;51.584;5.188;2024-03-25T06:08:38;100714.88;;;11.61;54.45
83273;BME280;73177;51.584;5.188;2024-03-25T06:11:03;100723.50;;;11.64;55.61
83273;BME280;73177;51.584;5.188;2024-03-25T06:13:29;100705.53;;;11.75;55.15
83273;BME280;73177;51.584;5.188;2024-03-25T06:15:54;100730.66;;;11.61;56.20
83273;BME280;73177;51.584;5.188;2024-03-25T06:18:20;100726.00;;;11.24;57.10
83273;BME280;73177;51.584;5.188;2024-03-25T06:20:45;100710.72;;;11.55;56.47
83273;BME280;73177;51.584;5.188;2024-03-25T06:23:11;100708.50;;;10.78;59.28
83273;BME280;73177;51.584;5.188;2024-03-25T06:25:46;100722.22;;;11.31;58.39
83273;BME280;73177;51.584;5.188;2024-03-25T06:28:11;100713.06;;;11.18;58.44
83273;BME280;73177;51.584;5.188;2024-03-25T06:30:37;100711.06;;;11.24;58.38
83273;BME280;73177;51.584;5.188;2024-03-25T06:33:21;100706.03;;;10.97;59.29
83273;BME280;73177;51.584;5.188;2024-03-25T06:36:05;100728.09;;;11.14;59.49
83273;BME280;73177;51.584;5.188;2024-03-25T06:38:31;100712.09;;;11.20;59.15
83273;BME280;73177;51.584;5.188;2024-03-25T06:40:56;100716.53;;;11.41;59.35
83273;BME280;73177;51.584;5.188;2024-03-25T06:43:21;100724.91;;;10.83;61.35
83273;BME280;73177;51.584;5.188;2024-03-25T06:48:28;100720.59;;;11.72;58.47
83273;BME280;73177;51.584;5.188;2024-03-25T06:51:30;100707.19;;;11.56;59.26
83273;BME280;73177;51.584;5.188;2024-03-25T06:53:56;100733.72;;;11.27;61.00
83273;BME280;73177;51.584;5.188;2024-03-25T06:56:21;100696.78;;;11.75;59.11
83273;BME280;73177;51.584;5.188;2024-03-25T06:58:46;100723.78;;;12.20;57.98
83273;BME280;73177;51.584;5.188;2024-03-25T07:01:11;100726.63;;;11.29;60.01
83273;BME280;73177;51.584;5.188;2024-03-25T07:03:37;100724.28;;;11.00;61.55
83273;BME280;73177;51.584;5.188;2024-03-25T07:06:03;100727.88;;;10.74;63.51
83273;BME280;73177;51.584;5.188;2024-03-25T07:08:28;100710.41;;;10.73;62.54
83273;BME280;73177;51.584;5.188;2024-03-25T07:10:55;100697.19;;;10.53;64.36
83273;BME280;73177;51.584;5.188;2024-03-25T07:13:21;100720.16;;;11.82;61.21
83273;BME280;73177;51.584;5.188;2024-03-25T07:15:46;100723.38;;;11.45;61.56
83273;BME280;73177;51.584;5.188;2024-03-25T07:18:12;100726.97;;;12.08;60.93
83273;BME280;73177;51.584;5.188;2024-03-25T07:20:41;100727.91;;;11.85;61.69
83273;BME280;73177;51.584;5.188;2024-03-25T07:23:06;100708.94;;;11.99;60.79
83273;BME280;73177;51.584;5.188;2024-03-25T07:25:31;100715.00;;;12.01;62.07
83273;BME280;73177;51.584;5.188;2024-03-25T07:27:57;100714.34;;;11.31;62.90
83273;BME280;73177;51.584;5.188;2024-03-25T07:30:23;100723.25;;;11.92;62.34
83273;BME280;73177;51.584;5.188;2024-03-25T07:32:52;100719.09;;;11.86;63.40
83273;BME280;73177;51.584;5.188;2024-03-25T07:35:18;100706.53;;;12.73;59.95
83273;BME280;73177;51.584;5.188;2024-03-25T07:37:43;100715.47;;;11.45;65.19
83273;BME280;73177;51.584;5.188;2024-03-25T07:40:09;100728.47;;;12.54;62.25
83273;BME280;73177;51.584;5.188;2024-03-25T07:42:37;100726.03;;;12.29;62.79
83273;BME280;73177;51.584;5.188;2024-03-25T07:45:02;100682.63;;;13.15;59.32
83273;BME280;73177;51.584;5.188;2024-03-25T07:47:28;100730.44;;;13.08;60.69
83273;BME280;73177;51.584;5.188;2024-03-25T07:49:53;100723.44;;;13.25;60.01
83273;BME280;73177;51.584;5.188;2024-03-25T07:52:19;100729.16;;;13.16;61.52
83273;BME280;73177;51.584;5.188;2024-03-25T07:54:44;100720.22;;;12.61;61.40
83273;BME280;73177;51.584;5.188;2024-03-25T07:57:09;100736.06;;;13.19;61.48
83273;BME280;73177;51.584;5.188;2024-03-25T07:59:35;100721.22;;;13.89;59.16
83273;BME280;73177;51.584;5.188;2024-03-25T08:02:00;100712.63;;;14.70;57.65
83273;BME280;73177;51.584;5.188;2024-03-25T08:04:26;100704.16;;;15.60;55.22
83273;BME280;73177;51.584;5.188;2024-03-25T08:06:51;100701.72;;;15.09;55.84
83273;BME280;73177;51.584;5.188;2024-03-25T08:09:16;100718.38;;;15.42;55.46
83273;BME280;73177;51.584;5.188;2024-03-25T08:11:43;100718.06;;;14.99;56.63
83273;BME280;73177;51.584;5.188;2024-03-25T08:14:11;100700.59;;;13.44;59.35
83273;BME280;73177;51.584;5.188;2024-03-25T08:16:36;100721.69;;;15.30;55.96
83273;BME280;73177;51.584;5.188;2024-03-25T08:19:02;100722.34;;;14.37;57.41
83273;BME280;73177;51.584;5.188;2024-03-25T08:21:28;100715.06;;;15.69;56.22
83273;BME280;73177;51.584;5.188;2024-03-25T08:23:53;100697.19;;;15.73;53.55
83273;BME280;73177;51.584;5.188;2024-03-25T08:26:18;100719.31;;;16.31;53.55
83273;BME280;73177;51.584;5.188;2024-03-25T08:28:44;100729.16;;;16.29;53.02
83273;BME280;73177;51.584;5.188;2024-03-25T08:31:09;100735.78;;;16.36;51.15
83273;BME280;73177;51.584;5.188;2024-03-25T08:33:35;100727.91;;;16.93;50.72
83273;BME280;73177;51.584;5.188;2024-03-25T08:36:00;100709.38;;;19.03;47.23
83273;BME280;73177;51.584;5.188;2024-03-25T08:38:25;100721.66;;;18.29;47.80
83273;BME280;73177;51.584;5.188;2024-03-25T08:40:51;100690.19;;;19.11;47.74
83273;BME280;73177;51.584;5.188;2024-03-25T08:43:17;100699.94;;;20.07;47.59
83273;BME280;73177;51.584;5.188;2024-03-25T08:45:43;100680.25;;;19.26;44.48
83273;BME280;73177;51.584;5.188;2024-03-25T08:48:08;100660.16;;;18.85;44.74
83273;BME280;73177;51.584;5.188;2024-03-25T08:50:33;100692.03;;;20.29;47.47
83273;BME280;73177;51.584;5.188;2024-03-25T08:52:59;100646.38;;;20.44;45.56
83273;BME280;73177;51.584;5.188;2024-03-25T08:55:24;100654.59;;;22.46;38.57
83273;BME280;73177;51.584;5.188;2024-03-25T08:57:49;100680.13;;;23.20;38.24
83273;BME280;73177;51.584;5.188;2024-03-25T09:00:17;100672.97;;;22.81;39.99
83273;BME280;73177;51.584;5.188;2024-03-25T09:02:43;100682.09;;;24.44;35.36
83273;BME280;73177;51.584;5.188;2024-03-25T09:05:08;100671.84;;;24.76;35.36
83273;BME280;73177;51.584;5.188;2024-03-25T09:07:34;100651.19;;;24.30;36.30
83273;BME280;73177;51.584;5.188;2024-03-25T09:10:00;100670.06;;;22.01;38.76
83273;BME280;73177;51.584;5.188;2024-03-25T09:12:43;100672.31;;;23.37;37.05
83273;BME280;73177;51.584;5.188;2024-03-25T09:15:09;100634.88;;;22.26;37.63
83273;BME280;73177;51.584;5.188;2024-03-25T09:17:35;100647.94;;;23.69;34.89
83273;BME280;73177;51.584;5.188;2024-03-25T09:20:01;100662.94;;;24.66;36.13
83273;BME280;73177;51.584;5.188;2024-03-25T09:22:26;100628.13;;;25.91;32.14
83273;BME280;73177;51.584;5.188;2024-03-25T09:24:52;100641.72;;;25.09;34.18
83273;BME280;73177;51.584;5.188;2024-03-25T09:27:17;100635.13;;;23.82;34.13
83273;BME280;73177;51.584;5.188;2024-03-25T09:29:42;100634.03;;;22.46;37.45
83273;BME280;73177;51.584;5.188;2024-03-25T09:32:08;100649.66;;;24.18;34.48
83273;BME280;73177;51.584;5.188;2024-03-25T09:34:33;100633.91;;;24.42;34.41
83273;BME280;73177;51.584;5.188;2024-03-25T09:36:59;100635.53;;;24.26;33.18
83273;BME280;73177;51.584;5.188;2024-03-25T09:39:25;100630.59;;;25.22;32.98
83273;BME280;73177;51.584;5.188;2024-03-25T09:41:54;100619.59;;;24.05;33.84
83273;BME280;73177;51.584;5.188;2024-03-25T09:44:22;100614.38;;;23.56;33.36
83273;BME280;73177;51.584;5.188;2024-03-25T09:46:49;100627.72;;;22.78;36.39
83273;BME280;73177;51.584;5.188;2024-03-25T09:49:14;100630.75;;;21.81;39.68
83273;BME280;73177;51.584;5.188;2024-03-25T09:51:40;100628.06;;;23.72;35.45
83273;BME280;73177;51.584;5.188;2024-03-25T09:54:06;100608.59;;;24.54;33.79
83273;BME280;73177;51.584;5.188;2024-03-25T09:56:31;100560.03;;;24.48;32.90
83273;BME280;73177;51.584;5.188;2024-03-25T09:58:57;100584.69;;;26.03;28.72
83273;BME280;73177;51.584;5.188;2024-03-25T10:01:22;100604.69;;;26.18;29.17
83273;BME280;73177;51.584;5.188;2024-03-25T10:03:48;100615.53;;;23.53;32.25
83273;BME280;73177;51.584;5.188;2024-03-25T10:06:13;100602.59;;;23.09;34.70
83273;BME280;73177;51.584;5.188;2024-03-25T10:08:38;100601.56;;;23.59;34.29
83273;BME280;73177;51.584;5.188;2024-03-25T10:11:04;100593.94;;;22.86;34.30
83273;BME280;73177;51.584;5.188;2024-03-25T10:13:29;100586.09;;;22.34;34.58
83273;BME280;73177;51.584;5.188;2024-03-25T10:15:55;100577.59;;;22.80;33.15
83273;BME280;73177;51.584;5.188;2024-03-25T10:18:20;100570.41;;;22.80;33.45
83273;BME280;73177;51.584;5.188;2024-03-25T10:20:52;100593.41;;;24.36;31.44
83273;BME280;73177;51.584;5.188;2024-03-25T10:23:22;100559.56;;;24.25;29.64
83273;BME280;73177;51.584;5.188;2024-03-25T10:25:48;100572.44;;;24.02;31.00
83273;BME280;73177;51.584;5.188;2024-03-25T10:28:13;100576.63;;;24.98;29.67
83273;BME280;73177;51.584;5.188;2024-03-25T10:30:40;100572.34;;;23.47;31.51
83273;BME280;73177;51.584;5.188;2024-03-25T10:33:07;100578.44;;;21.26;34.32
83273;BME280;73177;51.584;5.188;2024-03-25T10:35:34;100574.00;;;23.28;31.69
83273;BME280;73177;51.584;5.188;2024-03-25T10:38:01;100571.75;;;23.24;30.70
83273;BME280;73177;51.584;5.188;2024-03-25T10:40:30;100546.94;;;21.82;34.03
83273;BME280;73177;51.584;5.188;2024-03-25T10:43:07;100558.16;;;20.47;35.24
83273;BME280;73177;51.584;5.188;2024-03-25T10:45:45;100566.47;;;19.53;38.44
83273;BME280;73177;51.584;5.188;2024-03-25T10:48:27;100566.88;;;22.49;34.04
83273;BME280;73177;51.584;5.188;2024-03-25T10:50:55;100556.66;;;23.90;31.92
83273;BME280;73177;51.584;5.188;2024-03-25T10:53:21;100555.69;;;23.72;28.63
83273;BME280;73177;51.584;5.188;2024-03-25T10:55:50;100556.75;;;24.17;30.48
83273;BME280;73177;51.584;5.188;2024-03-25T10:58:16;100549.53;;;24.27;27.90
83273;BME280;73177;51.584;5.188;2024-03-25T11:00:42;100544.75;;;23.46;28.15
83273;BME280;73177;51.584;5.188;2024-03-25T11:03:09;100537.81;;;22.35;30.63
83273;BME280;73177;51.584;5.188;2024-03-25T11:05:34;100541.16;;;22.98;30.17
83273;BME280;73177;51.584;5.188;2024-03-25T11:08:13;100528.56;;;22.79;29.34
83273;BME280;73177;51.584;5.188;2024-03-25T11:10:40;100529.72;;;22.86;31.08
83273;BME280;73177;51.584;5.188;2024-03-25T11:13:19;100517.47;;;22.44;30.70
83273;BME280;73177;51.584;5.188;2024-03-25T11:15:47;100541.50;;;21.31;30.76
83273;BME280;73177;51.584;5.188;2024-03-25T11:18:17;100544.00;;;21.44;30.29
83273;BME280;73177;51.584;5.188;2024-03-25T11:20:43;100512.00;;;20.36;34.81
83273;BME280;73177;51.584;5.188;2024-03-25T11:23:10;100541.34;;;21.12;32.25
83273;BME280;73177;51.584;5.188;2024-03-25T11:25:36;100535.78;;;20.93;31.06
83273;BME280;73177;51.584;5.188;2024-03-25T11:28:02;100516.94;;;21.16;32.79
83273;BME280;73177;51.584;5.188;2024-03-25T11:30:27;100521.78;;;20.13;33.71
83273;BME280;73177;51.584;5.188;2024-03-25T11:32:54;100530.44;;;20.28;35.15
83273;BME280;73177;51.584;5.188;2024-03-25T11:35:20;100491.88;;;21.08;31.13
83273;BME280;73177;51.584;5.188;2024-03-25T11:37:46;100519.78;;;21.77;30.73
83273;BME280;73177;51.584;5.188;2024-03-25T11:40:13;100507.38;;;21.03;31.73
83273;BME280;73177;51.584;5.188;2024-03-25T11:42:43;100513.94;;;19.44;32.99
83273;BME280;73177;51.584;5.188;2024-03-25T11:45:15;100493.09;;;20.39;31.97
83273;BME280;73177;51.584;5.188;2024-03-25T11:47:42;100484.38;;;20.91;31.54
83273;BME280;73177;51.584;5.188;2024-03-25T11:50:08;100452.31;;;20.70;30.54
83273;BME280;73177;51.584;5.188;2024-03-25T11:52:34;100472.09;;;20.99;31.44
83273;BME280;73177;51.584;5.188;2024-03-25T11:55:00;100437.25;;;21.74;29.32
83273;BME280;73177;51.584;5.188;2024-03-25T11:57:25;100455.25;;;20.67;32.81
83273;BME280;73177;51.584;5.188;2024-03-25T11:59:51;100474.06;;;20.54;31.92
83273;BME280;73177;51.584;5.188;2024-03-25T12:02:16;100458.63;;;21.33;30.55
83273;BME280;73177;51.584;5.188;2024-03-25T12:04:43;100416.72;;;20.49;31.55
83273;BME280;73177;51.584;5.188;2024-03-25T12:07:11;100426.78;;;20.88;30.76
83273;BME280;73177;51.584;5.188;2024-03-25T12:09:36;100436.59;;;20.88;30.54
83273;BME280;73177;51.584;5.188;2024-03-25T12:12:20;100444.94;;;21.05;29.36
83273;BME280;73177;51.584;5.188;2024-03-25T12:14:45;100435.63;;;21.20;30.72
83273;BME280;73177;51.584;5.188;2024-03-25T12:17:11;100442.16;;;20.64;31.84
83273;BME280;73177;51.584;5.188;2024-03-25T12:19:36;100441.03;;;20.35;31.00
83273;BME280;73177;51.584;5.188;2024-03-25T12:22:02;100436.56;;;21.30;28.89
83273;BME280;73177;51.584;5.188;2024-03-25T12:24:30;100400.38;;;21.47;28.99
83273;BME280;73177;51.584;5.188;2024-03-25T12:26:55;100428.81;;;21.27;29.49
83273;BME280;73177;51.584;5.188;2024-03-25T12:29:21;100414.53;;;22.19;27.59
83273;BME280;73177;51.584;5.188;2024-03-25T12:32:00;100424.09;;;21.61;27.56
83273;BME280;73177;51.584;5.188;2024-03-25T12:34:26;100423.06;;;21.53;27.37
83273;BME280;73177;51.584;5.188;2024-03-25T12:37:00;100417.47;;;20.51;29.18
83273;BME280;73177;51.584;5.188;2024-03-25T12:39:26;100395.63;;;19.48;30.32
83273;BME280;73177;51.584;5.188;2024-03-25T12:41:51;100406.91;;;20.81;30.74
83273;BME280;73177;51.584;5.188;2024-03-25T12:44:16;100408.00;;;20.47;30.17
83273;BME280;73177;51.584;5.188;2024-03-25T12:46:42;100376.16;;;20.98;30.00
83273;BME280;73177;51.584;5.188;2024-03-25T12:49:07;100398.25;;;20.68;27.70